Hauptseite
METAR-TAF:

METAR-TAF

Flughäfen :

Flughafen Guilin-Liangjiang

Guilin, China

Breite: 25-20N, Länge: 110-18E, Höhe: 166 m

Beobachtung

Neuester Wetterbericht von vor 47 Minuten, um 14:00 UTC
Wind 4 kt aus Nord/Nordwest
Temperatur 29°C
Luftfeuchtigkeit 79%
Luftdruck 1000 hPa
Sichtweite 10 km oder mehr
keine Wolken unter 1500 m und keine Kumulonimbus oder Gewitterwolken

METAR: ZGKL 231400Z 34002MPS CAVOK 29/25 Q1000 NOSIG

Zeit: 22:47 (14:47 UTC)

Prognose

Neuester Wetterbericht von vor 5 Stunden und 45 Minuten, um 09:02 UTC
Gültige Prognose vom 23 um 12 UTC bis 24 um 12 UTC
Wind 6 kt aus Süd
Sichtweite: 6000 m
Aufgelockert bewölkt in der Höhe von 3000 ft

TAF: ZGKL 230902Z 2312/2412 18003MPS 6000 SCT030 TX36/2407Z TN26/2322Z

Wetterbeobachtungen und Prognosen von mehr als 4000 Flughäfen (METAR und TAF Bericht).

Die verfügbaren Stationen werden durch gelbe und rote Markierungen auf der Karte dargestellt.

Führen Sie die Maus auf sie, um den Namen der Station zu sehen.

Darauf klicken, um die Beobachtung von Wetterbeobachtungen und Prognosen zu sehen.

Um die Karte zu ändern : klicken Sie auf den grünen Tasten mit einem schwarzen Kreuz Zum Vergrößern, auf den grünen Button mit einem Gedankenstrich zu verkleinern, oder auf die grünen Pfeile für benachbarte Karten.


METAR-TAF: